Impacts TAF Board
For situational awareness. Not to be used for flight planning purposes.
IDs:

KLGA - New York/La Guardia, NY, US

Issued at 1500 UTC 24 Sep 2018
Updated at 1705 UTC 24 Sep 2018
Potential Impact None Slight Moderate High
Time1651Z 24/18Z 24/19Z 24/20Z 24/21Z 24/22Z 24/23Z 25/00Z 25/01Z 25/02Z 25/03Z 25/04Z 25/05Z 25/06Z>>
Type OBS PRVL PRVL PRVL PRVL PRVL PRVL PRVL PRVL PRVL PRVL PRVL PRVL PRVL
VIS 10 >6 >6 >6 >6 >6 >6 >6 >6 >6 >6 >6 6 6
CIG 42 25 25 25 25 25 25 25 25 25 25 25 25 25
Cover BKN BKN BKN BKN BKN BKN BKN BKN BKN BKN BKN BKN BKN BKN
FltCat VFR MVFR MVFR MVFR MVFR MVFR MVFR MVFR MVFR MVFR MVFR MVFR MVFR MVFR
WX -- -- -- -- -- -- -- -- -- -- -- -- -RA -RA
WDir 70 70 70 80 80 80 80 80 80 80 80 80 90 90
WSpd 16 16 16 18 18 18 18 18 18 18 18 18 17 17
WGst -- 22 22 24 24 24 24 24 24 24 24 24 24 24
Raw TAF
KLGA 241500Z 2415/2518 06017KT P6SM BKN025 BKN250
  FM241600 07016G22KT P6SM BKN025 BKN250
  FM242000 08018G24KT P6SM BKN025 BKN050
  FM250500 09017G24KT 6SM -RA BKN025 BKN050
  FM251000 09016G23KT 3SM RA BKN015 OVC035


Raw METAR
KLGA 241651Z 07016KT 10SM SCT036 BKN042 BKN250 21/12 A3047 RMK AO2 SLP316 T02060117 $
KLGA 241632Z 08014G21KT 10SM SCT028 BKN036 BKN250 21/11 A3047 RMK AO2 T02060111 $
KLGA 241551Z 07014KT 10SM SCT023 BKN029 BKN250 19/12 A3047 RMK AO2 SLP317 T01940122 $
KLGA 241518Z 06013KT 10SM FEW016 BKN030 BKN250 19/13 A3047 RMK AO2 T01890128 $
KLGA 241451Z 06014KT 10SM SCT018 BKN025 BKN250 17/13 A3047 RMK AO2 SLP318 T01720128 51020 $

METAR Board
Radar Display
Forecast Discussion
For situational awareness. Not to be used for flight planning purposes.